Peaseville, Vermont
Current Conditions -  °F | °C
As of 8:54 AM on Thursday 23 Oct 2014 (Local Time) from KVSF Reporting Station
Light Rain Light Rain  
Wind Chill: 41°   Ceiling: 1700
Heat Index: 46°   Visibility: 7mi
Dew Point: 43°   Wind: 9mph
Humidity: 89%   Direction: 10°N
Pressure: 29.83"   Gusts: NA
Location:  43.2811°N, 72.6352°W
Report Text: KVSF 231254Z AUTO 01008KT 340V060 7SM -RA BKN017 OVC022 08/06 A2983 RMK AO2 SLP103 P0002 T00780061
Loading
Personal Weather Stations






























Interactive Weather Map
Tropical Storm Tracking
New forecast layout! Learn more

10-Day Weather Forecast

Advertisements
Track Severe Weather on mobile